Terminal Aerodrome Forecast
Issued by NWS Jacksonville, FL

Home | Current Version | Previous Version | Text Only | Print | Product List | Glossary On
Versions: 1 2 3 4 5 6 7 8 9 10 11 12 13 14 15 16 17 18 19 20 21 22 23 24 25 26 27 28 29 30 31 32 33 34 35 36 37 38 39 40
000
FTUS42 KJAX 252000 AAB
TAFSSI
TAF AMD
KSSI 252042Z 2521/2618 01006KT 1SM RA OVC035
     FM252200 VRB10KT 1SM TSRA OVC010CB
     FM260500 33015G28KT 5SM -RA OVC010
     FM261200 30012G20KT 6SM -SHRA SCT010 BKN050=

USA.gov is the U.S. government's official web portal to all federal, state and local government web resources and services.